sensor_id;sensor_type;location;lat;lon;timestamp;temperature;humidity
480;DHT22;226;48.606;9.096;2023-04-21T00:00:14;6.10;65.80
480;DHT22;226;48.606;9.096;2023-04-21T00:02:42;6.10;68.00
480;DHT22;226;48.606;9.096;2023-04-21T00:05:12;6.00;69.50
480;DHT22;226;48.606;9.096;2023-04-21T00:07:41;6.00;70.50
480;DHT22;226;48.606;9.096;2023-04-21T00:10:10;6.00;69.60
480;DHT22;226;48.606;9.096;2023-04-21T00:12:40;5.90;67.40
480;DHT22;226;48.606;9.096;2023-04-21T00:15:09;5.80;68.60
480;DHT22;226;48.606;9.096;2023-04-21T00:17:37;5.70;69.70
480;DHT22;226;48.606;9.096;2023-04-21T00:20:06;5.70;70.90
480;DHT22;226;48.606;9.096;2023-04-21T00:22:36;5.70;70.40
480;DHT22;226;48.606;9.096;2023-04-21T00:25:05;5.60;70.60
480;DHT22;226;48.606;9.096;2023-04-21T00:27:33;5.70;69.60
480;DHT22;226;48.606;9.096;2023-04-21T00:30:03;5.60;70.00
480;DHT22;226;48.606;9.096;2023-04-21T00:32:31;5.60;69.70
480;DHT22;226;48.606;9.096;2023-04-21T00:35:00;5.50;69.20
480;DHT22;226;48.606;9.096;2023-04-21T00:37:28;5.50;69.10
480;DHT22;226;48.606;9.096;2023-04-21T00:39:56;5.40;68.70
480;DHT22;226;48.606;9.096;2023-04-21T00:42:25;5.50;70.50
480;DHT22;226;48.606;9.096;2023-04-21T00:44:53;5.50;68.60
480;DHT22;226;48.606;9.096;2023-04-21T00:47:23;5.50;68.10
480;DHT22;226;48.606;9.096;2023-04-21T00:49:52;5.50;67.10
480;DHT22;226;48.606;9.096;2023-04-21T00:52:20;5.40;65.20
480;DHT22;226;48.606;9.096;2023-04-21T00:54:49;5.20;65.80
480;DHT22;226;48.606;9.096;2023-04-21T00:57:18;5.20;67.80
480;DHT22;226;48.606;9.096;2023-04-21T00:59:46;5.10;68.00
480;DHT22;226;48.606;9.096;2023-04-21T01:02:16;5.20;68.80
480;DHT22;226;48.606;9.096;2023-04-21T01:04:46;5.00;68.60
480;DHT22;226;48.606;9.096;2023-04-21T01:07:14;5.10;67.50
480;DHT22;226;48.606;9.096;2023-04-21T01:09:42;4.90;66.80
480;DHT22;226;48.606;9.096;2023-04-21T01:12:11;4.80;68.00
480;DHT22;226;48.606;9.096;2023-04-21T01:14:40;4.60;70.00
480;DHT22;226;48.606;9.096;2023-04-21T01:17:08;4.50;73.60
480;DHT22;226;48.606;9.096;2023-04-21T01:19:38;4.40;76.80
480;DHT22;226;48.606;9.096;2023-04-21T01:22:09;4.30;79.20
480;DHT22;226;48.606;9.096;2023-04-21T01:24:39;4.30;81.20
480;DHT22;226;48.606;9.096;2023-04-21T01:27:11;4.30;82.70
480;DHT22;226;48.606;9.096;2023-04-21T01:29:40;4.20;83.80
480;DHT22;226;48.606;9.096;2023-04-21T01:32:10;4.20;83.40
480;DHT22;226;48.606;9.096;2023-04-21T01:34:40;4.00;84.20
480;DHT22;226;48.606;9.096;2023-04-21T01:37:10;3.90;85.80
480;DHT22;226;48.606;9.096;2023-04-21T01:39:39;3.80;86.60
480;DHT22;226;48.606;9.096;2023-04-21T01:42:08;3.80;87.50
480;DHT22;226;48.606;9.096;2023-04-21T01:44:36;4.00;88.40
480;DHT22;226;48.606;9.096;2023-04-21T01:47:05;3.90;88.50
480;DHT22;226;48.606;9.096;2023-04-21T01:49:33;4.00;88.70
480;DHT22;226;48.606;9.096;2023-04-21T01:52:01;4.00;88.60
480;DHT22;226;48.606;9.096;2023-04-21T01:54:31;4.30;87.80
480;DHT22;226;48.606;9.096;2023-04-21T01:56:59;4.10;85.40
480;DHT22;226;48.606;9.096;2023-04-21T01:59:27;3.90;83.30
480;DHT22;226;48.606;9.096;2023-04-21T02:01:55;3.70;82.50
480;DHT22;226;48.606;9.096;2023-04-21T02:04:24;3.50;83.40
480;DHT22;226;48.606;9.096;2023-04-21T02:06:52;3.40;84.80
480;DHT22;226;48.606;9.096;2023-04-21T02:09:20;3.30;85.40
480;DHT22;226;48.606;9.096;2023-04-21T02:11:50;3.30;85.80
480;DHT22;226;48.606;9.096;2023-04-21T02:14:18;3.00;86.20
480;DHT22;226;48.606;9.096;2023-04-21T02:16:46;2.90;87.00
480;DHT22;226;48.606;9.096;2023-04-21T02:19:14;2.90;86.70
480;DHT22;226;48.606;9.096;2023-04-21T02:21:43;3.00;87.50
480;DHT22;226;48.606;9.096;2023-04-21T02:24:11;3.10;88.70
480;DHT22;226;48.606;9.096;2023-04-21T02:26:39;3.20;87.80
480;DHT22;226;48.606;9.096;2023-04-21T02:29:09;3.30;87.10
480;DHT22;226;48.606;9.096;2023-04-21T02:31:37;3.20;83.70
480;DHT22;226;48.606;9.096;2023-04-21T02:34:24;3.20;82.90
480;DHT22;226;48.606;9.096;2023-04-21T02:36:53;3.20;83.10
480;DHT22;226;48.606;9.096;2023-04-21T02:39:21;3.30;83.40
480;DHT22;226;48.606;9.096;2023-04-21T02:41:49;3.50;83.50
480;DHT22;226;48.606;9.096;2023-04-21T02:44:18;3.30;83.10
480;DHT22;226;48.606;9.096;2023-04-21T02:46:47;3.30;81.00
480;DHT22;226;48.606;9.096;2023-04-21T02:49:15;3.30;79.40
480;DHT22;226;48.606;9.096;2023-04-21T02:51:43;3.40;80.20
480;DHT22;226;48.606;9.096;2023-04-21T02:54:11;3.20;76.30
480;DHT22;226;48.606;9.096;2023-04-21T02:56:39;3.00;76.60
480;DHT22;226;48.606;9.096;2023-04-21T02:59:07;3.00;79.00
480;DHT22;226;48.606;9.096;2023-04-21T03:01:38;2.80;79.30
480;DHT22;226;48.606;9.096;2023-04-21T03:04:06;2.60;80.20
480;DHT22;226;48.606;9.096;2023-04-21T03:06:34;2.70;81.20
480;DHT22;226;48.606;9.096;2023-04-21T03:09:02;2.80;81.60
480;DHT22;226;48.606;9.096;2023-04-21T03:11:31;2.90;80.80
480;DHT22;226;48.606;9.096;2023-04-21T03:13:59;2.80;79.80
480;DHT22;226;48.606;9.096;2023-04-21T03:16:27;2.60;79.30
480;DHT22;226;48.606;9.096;2023-04-21T03:18:57;2.50;79.60
480;DHT22;226;48.606;9.096;2023-04-21T03:21:25;2.40;82.20
480;DHT22;226;48.606;9.096;2023-04-21T03:23:53;2.40;83.80
480;DHT22;226;48.606;9.096;2023-04-21T03:26:21;2.30;83.90
480;DHT22;226;48.606;9.096;2023-04-21T03:28:49;2.60;85.20
480;DHT22;226;48.606;9.096;2023-04-21T03:31:17;2.50;85.40
480;DHT22;226;48.606;9.096;2023-04-21T03:33:45;3.20;86.80
480;DHT22;226;48.606;9.096;2023-04-21T03:36:14;2.80;85.50
480;DHT22;226;48.606;9.096;2023-04-21T03:38:42;2.80;83.80
480;DHT22;226;48.606;9.096;2023-04-21T03:41:10;2.80;82.80
480;DHT22;226;48.606;9.096;2023-04-21T03:43:38;2.80;79.60
480;DHT22;226;48.606;9.096;2023-04-21T03:46:06;2.80;78.90
480;DHT22;226;48.606;9.096;2023-04-21T03:48:35;2.60;75.60
480;DHT22;226;48.606;9.096;2023-04-21T03:51:03;2.50;77.30
480;DHT22;226;48.606;9.096;2023-04-21T03:53:32;2.50;78.20
480;DHT22;226;48.606;9.096;2023-04-21T03:56:00;2.50;77.80
480;DHT22;226;48.606;9.096;2023-04-21T03:58:28;2.60;78.60
480;DHT22;226;48.606;9.096;2023-04-21T04:00:57;2.60;78.00
480;DHT22;226;48.606;9.096;2023-04-21T04:03:25;2.70;77.90
480;DHT22;226;48.606;9.096;2023-04-21T04:05:53;2.80;78.20
480;DHT22;226;48.606;9.096;2023-04-21T04:08:21;2.80;78.70
480;DHT22;226;48.606;9.096;2023-04-21T04:10:51;2.90;78.40
480;DHT22;226;48.606;9.096;2023-04-21T04:13:19;3.00;78.10
480;DHT22;226;48.606;9.096;2023-04-21T04:15:48;3.10;77.10
480;DHT22;226;48.606;9.096;2023-04-21T04:18:16;3.10;73.70
480;DHT22;226;48.606;9.096;2023-04-21T04:20:44;3.10;73.40
480;DHT22;226;48.606;9.096;2023-04-21T04:23:12;3.10;69.30
480;DHT22;226;48.606;9.096;2023-04-21T04:25:40;3.00;69.90
480;DHT22;226;48.606;9.096;2023-04-21T04:28:10;2.80;69.30
480;DHT22;226;48.606;9.096;2023-04-21T04:30:38;2.50;69.20
480;DHT22;226;48.606;9.096;2023-04-21T04:33:06;2.50;71.30
480;DHT22;226;48.606;9.096;2023-04-21T04:35:35;2.40;73.20
480;DHT22;226;48.606;9.096;2023-04-21T04:38:03;2.60;75.10
480;DHT22;226;48.606;9.096;2023-04-21T04:40:33;2.60;75.90
480;DHT22;226;48.606;9.096;2023-04-21T04:43:01;2.80;75.90
480;DHT22;226;48.606;9.096;2023-04-21T04:45:31;2.80;71.00
480;DHT22;226;48.606;9.096;2023-04-21T04:47:59;2.50;71.90
480;DHT22;226;48.606;9.096;2023-04-21T04:50:27;2.60;72.90
480;DHT22;226;48.606;9.096;2023-04-21T04:52:55;2.60;73.40
480;DHT22;226;48.606;9.096;2023-04-21T04:55:23;2.60;72.90
480;DHT22;226;48.606;9.096;2023-04-21T04:57:51;2.50;71.40
480;DHT22;226;48.606;9.096;2023-04-21T05:00:20;2.50;72.80
480;DHT22;226;48.606;9.096;2023-04-21T05:02:49;2.60;73.40
480;DHT22;226;48.606;9.096;2023-04-21T05:05:18;2.70;74.60
480;DHT22;226;48.606;9.096;2023-04-21T05:07:47;2.80;74.90
480;DHT22;226;48.606;9.096;2023-04-21T05:10:15;3.10;75.40
480;DHT22;226;48.606;9.096;2023-04-21T05:12:43;3.00;75.20
480;DHT22;226;48.606;9.096;2023-04-21T05:15:11;3.10;74.30
480;DHT22;226;48.606;9.096;2023-04-21T05:17:39;3.20;72.80
480;DHT22;226;48.606;9.096;2023-04-21T05:20:10;3.30;73.30
480;DHT22;226;48.606;9.096;2023-04-21T05:22:38;3.40;68.70
480;DHT22;226;48.606;9.096;2023-04-21T05:25:08;3.50;64.00
480;DHT22;226;48.606;9.096;2023-04-21T05:27:37;3.20;63.20
480;DHT22;226;48.606;9.096;2023-04-21T05:30:06;3.30;64.80
480;DHT22;226;48.606;9.096;2023-04-21T05:32:34;3.20;65.70
480;DHT22;226;48.606;9.096;2023-04-21T05:35:02;3.30;69.20
480;DHT22;226;48.606;9.096;2023-04-21T05:37:32;3.50;69.50
480;DHT22;226;48.606;9.096;2023-04-21T05:40:00;3.50;69.90
480;DHT22;226;48.606;9.096;2023-04-21T05:42:28;3.80;68.60
480;DHT22;226;48.606;9.096;2023-04-21T05:44:56;3.80;62.80
480;DHT22;226;48.606;9.096;2023-04-21T05:47:25;3.70;59.80
480;DHT22;226;48.606;9.096;2023-04-21T05:49:53;3.70;60.80
480;DHT22;226;48.606;9.096;2023-04-21T05:52:21;3.60;60.90
480;DHT22;226;48.606;9.096;2023-04-21T05:54:50;3.40;61.30
480;DHT22;226;48.606;9.096;2023-04-21T05:57:19;3.80;64.80
480;DHT22;226;48.606;9.096;2023-04-21T05:59:47;3.80;67.90
480;DHT22;226;48.606;9.096;2023-04-21T06:02:15;3.30;68.00
480;DHT22;226;48.606;9.096;2023-04-21T06:04:43;3.30;70.00
480;DHT22;226;48.606;9.096;2023-04-21T06:07:12;3.50;71.30
480;DHT22;226;48.606;9.096;2023-04-21T06:09:42;3.60;71.60
480;DHT22;226;48.606;9.096;2023-04-21T06:12:12;4.10;72.50
480;DHT22;226;48.606;9.096;2023-04-21T06:14:40;4.00;70.10
480;DHT22;226;48.606;9.096;2023-04-21T06:17:08;4.10;69.20
480;DHT22;226;48.606;9.096;2023-04-21T06:19:36;4.20;68.30
480;DHT22;226;48.606;9.096;2023-04-21T06:22:07;4.40;66.00
480;DHT22;226;48.606;9.096;2023-04-21T06:24:35;4.50;64.70
480;DHT22;226;48.606;9.096;2023-04-21T06:27:09;5.50;65.70
480;DHT22;226;48.606;9.096;2023-04-21T06:29:39;4.80;60.10
480;DHT22;226;48.606;9.096;2023-04-21T06:32:08;4.80;60.50
480;DHT22;226;48.606;9.096;2023-04-21T06:34:36;4.80;59.80
480;DHT22;226;48.606;9.096;2023-04-21T06:37:05;5.00;56.70
480;DHT22;226;48.606;9.096;2023-04-21T06:39:33;4.90;56.70
480;DHT22;226;48.606;9.096;2023-04-21T06:42:01;4.80;57.30
480;DHT22;226;48.606;9.096;2023-04-21T06:44:29;4.80;60.00
480;DHT22;226;48.606;9.096;2023-04-21T06:46:59;4.80;60.00
480;DHT22;226;48.606;9.096;2023-04-21T06:49:27;4.90;59.70
480;DHT22;226;48.606;9.096;2023-04-21T06:51:56;5.10;60.80
480;DHT22;226;48.606;9.096;2023-04-21T06:54:24;5.00;61.40
480;DHT22;226;48.606;9.096;2023-04-21T06:56:52;5.10;61.60
480;DHT22;226;48.606;9.096;2023-04-21T06:59:21;5.20;63.30
480;DHT22;226;48.606;9.096;2023-04-21T07:01:49;5.70;63.40
480;DHT22;226;48.606;9.096;2023-04-21T07:04:19;4.90;62.20
480;DHT22;226;48.606;9.096;2023-04-21T07:06:48;5.60;64.90
480;DHT22;226;48.606;9.096;2023-04-21T07:09:16;5.60;64.70
480;DHT22;226;48.606;9.096;2023-04-21T07:11:45;5.80;64.50
480;DHT22;226;48.606;9.096;2023-04-21T07:14:13;5.70;63.00
480;DHT22;226;48.606;9.096;2023-04-21T07:16:41;5.80;63.70
480;DHT22;226;48.606;9.096;2023-04-21T07:19:10;5.90;63.70
480;DHT22;226;48.606;9.096;2023-04-21T07:21:39;6.00;63.80
480;DHT22;226;48.606;9.096;2023-04-21T07:24:08;6.20;64.70
480;DHT22;226;48.606;9.096;2023-04-21T07:26:36;6.20;61.80
480;DHT22;226;48.606;9.096;2023-04-21T07:29:04;6.30;58.20
480;DHT22;226;48.606;9.096;2023-04-21T07:31:32;6.40;58.60
480;DHT22;226;48.606;9.096;2023-04-21T07:34:01;6.50;60.00
480;DHT22;226;48.606;9.096;2023-04-21T07:36:29;6.70;61.30
480;DHT22;226;48.606;9.096;2023-04-21T07:38:59;7.00;62.40
480;DHT22;226;48.606;9.096;2023-04-21T07:41:28;7.10;60.70
480;DHT22;226;48.606;9.096;2023-04-21T07:43:56;7.20;60.60
480;DHT22;226;48.606;9.096;2023-04-21T07:46:24;7.30;59.10
480;DHT22;226;48.606;9.096;2023-04-21T07:48:56;7.50;57.90
480;DHT22;226;48.606;9.096;2023-04-21T07:51:25;7.70;57.80
480;DHT22;226;48.606;9.096;2023-04-21T07:53:54;7.80;56.80
480;DHT22;226;48.606;9.096;2023-04-21T07:56:23;8.00;56.40
480;DHT22;226;48.606;9.096;2023-04-21T07:58:52;8.10;56.70
480;DHT22;226;48.606;9.096;2023-04-21T08:01:20;8.20;55.10
480;DHT22;226;48.606;9.096;2023-04-21T08:03:49;8.20;53.90
480;DHT22;226;48.606;9.096;2023-04-21T08:06:17;8.30;55.00
480;DHT22;226;48.606;9.096;2023-04-21T08:08:47;8.40;53.80
480;DHT22;226;48.606;9.096;2023-04-21T08:11:16;8.50;52.30
480;DHT22;226;48.606;9.096;2023-04-21T08:13:45;8.50;52.90
480;DHT22;226;48.606;9.096;2023-04-21T08:16:13;8.60;53.80
480;DHT22;226;48.606;9.096;2023-04-21T08:18:42;8.70;52.20
480;DHT22;226;48.606;9.096;2023-04-21T08:21:10;8.70;50.00
480;DHT22;226;48.606;9.096;2023-04-21T08:23:38;8.80;50.80
480;DHT22;226;48.606;9.096;2023-04-21T08:26:07;8.80;50.80
480;DHT22;226;48.606;9.096;2023-04-21T08:28:36;9.10;50.00
480;DHT22;226;48.606;9.096;2023-04-21T08:31:06;9.30;47.80
480;DHT22;226;48.606;9.096;2023-04-21T08:33:34;9.50;47.00
480;DHT22;226;48.606;9.096;2023-04-21T08:36:16;9.50;42.90
480;DHT22;226;48.606;9.096;2023-04-21T08:38:55;9.60;43.20
480;DHT22;226;48.606;9.096;2023-04-21T08:41:24;9.70;42.40
480;DHT22;226;48.606;9.096;2023-04-21T08:43:52;9.60;40.00
480;DHT22;226;48.606;9.096;2023-04-21T08:46:22;9.80;40.10
480;DHT22;226;48.606;9.096;2023-04-21T08:48:50;9.80;41.70
480;DHT22;226;48.606;9.096;2023-04-21T08:51:22;10.00;39.30
480;DHT22;226;48.606;9.096;2023-04-21T08:53:50;10.20;37.30
480;DHT22;226;48.606;9.096;2023-04-21T08:56:19;10.20;35.80
480;DHT22;226;48.606;9.096;2023-04-21T08:58:47;10.30;36.30
480;DHT22;226;48.606;9.096;2023-04-21T09:01:15;10.50;34.20
480;DHT22;226;48.606;9.096;2023-04-21T09:03:45;10.50;34.70
480;DHT22;226;48.606;9.096;2023-04-21T09:06:13;10.50;34.30
480;DHT22;226;48.606;9.096;2023-04-21T09:08:51;10.70;34.50
480;DHT22;226;48.606;9.096;2023-04-21T09:11:21;10.90;35.50
480;DHT22;226;48.606;9.096;2023-04-21T09:13:50;10.60;33.40
480;DHT22;226;48.606;9.096;2023-04-21T09:16:20;10.90;32.80
480;DHT22;226;48.606;9.096;2023-04-21T09:18:50;10.90;30.40
480;DHT22;226;48.606;9.096;2023-04-21T09:21:19;10.90;29.40
480;DHT22;226;48.606;9.096;2023-04-21T09:23:50;10.90;31.70
480;DHT22;226;48.606;9.096;2023-04-21T09:26:20;10.90;30.70
480;DHT22;226;48.606;9.096;2023-04-21T09:28:50;11.00;32.10
480;DHT22;226;48.606;9.096;2023-04-21T09:31:20;11.10;30.70
480;DHT22;226;48.606;9.096;2023-04-21T09:33:56;11.20;31.50
480;DHT22;226;48.606;9.096;2023-04-21T09:36:28;11.30;30.20
480;DHT22;226;48.606;9.096;2023-04-21T09:38:59;11.40;27.80
480;DHT22;226;48.606;9.096;2023-04-21T09:41:48;11.40;28.30
480;DHT22;226;48.606;9.096;2023-04-21T09:44:17;11.50;29.90
480;DHT22;226;48.606;9.096;2023-04-21T09:46:48;11.60;30.00
480;DHT22;226;48.606;9.096;2023-04-21T09:49:21;11.70;29.80
480;DHT22;226;48.606;9.096;2023-04-21T09:51:50;11.70;28.70
480;DHT22;226;48.606;9.096;2023-04-21T09:54:44;11.60;30.00
480;DHT22;226;48.606;9.096;2023-04-21T09:57:19;11.60;29.30
480;DHT22;226;48.606;9.096;2023-04-21T09:59:53;11.60;29.80
480;DHT22;226;48.606;9.096;2023-04-21T10:02:24;11.70;29.70
480;DHT22;226;48.606;9.096;2023-04-21T10:04:55;11.90;30.20
480;DHT22;226;48.606;9.096;2023-04-21T10:07:24;12.10;29.60
480;DHT22;226;48.606;9.096;2023-04-21T10:09:54;12.10;29.40
480;DHT22;226;48.606;9.096;2023-04-21T10:12:24;12.30;30.10
480;DHT22;226;48.606;9.096;2023-04-21T10:14:53;12.70;28.40
480;DHT22;226;48.606;9.096;2023-04-21T10:17:23;13.00;28.60
480;DHT22;226;48.606;9.096;2023-04-21T10:19:55;13.00;28.30
480;DHT22;226;48.606;9.096;2023-04-21T10:22:28;13.10;26.60
480;DHT22;226;48.606;9.096;2023-04-21T10:24:58;13.20;29.70
480;DHT22;226;48.606;9.096;2023-04-21T10:27:31;13.30;28.20
480;DHT22;226;48.606;9.096;2023-04-21T10:30:00;13.40;27.20
480;DHT22;226;48.606;9.096;2023-04-21T10:32:39;13.50;29.00
480;DHT22;226;48.606;9.096;2023-04-21T10:35:10;13.70;27.00
480;DHT22;226;48.606;9.096;2023-04-21T10:37:40;13.80;27.00
480;DHT22;226;48.606;9.096;2023-04-21T10:40:33;14.00;27.40
480;DHT22;226;48.606;9.096;2023-04-21T10:43:05;14.00;27.20
480;DHT22;226;48.606;9.096;2023-04-21T10:45:33;14.10;28.20
480;DHT22;226;48.606;9.096;2023-04-21T10:48:01;14.20;27.50
480;DHT22;226;48.606;9.096;2023-04-21T10:50:41;14.20;27.40
480;DHT22;226;48.606;9.096;2023-04-21T10:53:11;14.20;27.50
480;DHT22;226;48.606;9.096;2023-04-21T10:55:40;14.40;27.70
480;DHT22;226;48.606;9.096;2023-04-21T10:58:09;14.50;27.90
480;DHT22;226;48.606;9.096;2023-04-21T11:00:37;14.60;28.90
480;DHT22;226;48.606;9.096;2023-04-21T11:03:06;14.80;27.60
480;DHT22;226;48.606;9.096;2023-04-21T11:05:36;14.80;26.20
480;DHT22;226;48.606;9.096;2023-04-21T11:08:09;14.90;26.90
480;DHT22;226;48.606;9.096;2023-04-21T11:10:43;14.90;24.60
480;DHT22;226;48.606;9.096;2023-04-21T11:13:12;15.30;23.50
480;DHT22;226;48.606;9.096;2023-04-21T11:15:40;15.20;23.80
480;DHT22;226;48.606;9.096;2023-04-21T11:18:09;15.20;21.70
480;DHT22;226;48.606;9.096;2023-04-21T11:20:39;15.20;22.30
480;DHT22;226;48.606;9.096;2023-04-21T11:23:17;15.20;21.10
480;DHT22;226;48.606;9.096;2023-04-21T11:25:45;15.10;22.20
480;DHT22;226;48.606;9.096;2023-04-21T11:28:20;15.20;21.90
480;DHT22;226;48.606;9.096;2023-04-21T11:30:48;15.30;21.40
480;DHT22;226;48.606;9.096;2023-04-21T11:33:17;15.40;22.00
480;DHT22;226;48.606;9.096;2023-04-21T11:35:45;15.70;21.00
480;DHT22;226;48.606;9.096;2023-04-21T11:38:13;15.80;22.00
480;DHT22;226;48.606;9.096;2023-04-21T11:40:47;15.90;20.60
480;DHT22;226;48.606;9.096;2023-04-21T11:43:17;15.90;19.30
480;DHT22;226;48.606;9.096;2023-04-21T11:45:48;15.80;22.20
480;DHT22;226;48.606;9.096;2023-04-21T11:48:17;15.80;23.10
480;DHT22;226;48.606;9.096;2023-04-21T11:50:47;16.00;22.70
480;DHT22;226;48.606;9.096;2023-04-21T11:53:15;16.10;22.70
480;DHT22;226;48.606;9.096;2023-04-21T11:55:45;16.10;22.90
480;DHT22;226;48.606;9.096;2023-04-21T11:58:14;16.10;23.10
480;DHT22;226;48.606;9.096;2023-04-21T12:00:44;16.20;23.80
480;DHT22;226;48.606;9.096;2023-04-21T12:03:13;16.10;22.30
480;DHT22;226;48.606;9.096;2023-04-21T12:05:42;16.20;22.60
480;DHT22;226;48.606;9.096;2023-04-21T12:08:13;16.20;22.10
480;DHT22;226;48.606;9.096;2023-04-21T12:10:44;16.20;23.70
480;DHT22;226;48.606;9.096;2023-04-21T12:13:20;16.40;23.20
480;DHT22;226;48.606;9.096;2023-04-21T12:15:49;16.40;23.10
480;DHT22;226;48.606;9.096;2023-04-21T12:18:17;16.60;23.20
480;DHT22;226;48.606;9.096;2023-04-21T12:20:49;16.60;23.10
480;DHT22;226;48.606;9.096;2023-04-21T12:23:17;16.80;26.70
480;DHT22;226;48.606;9.096;2023-04-21T12:25:46;17.00;25.30
480;DHT22;226;48.606;9.096;2023-04-21T12:28:16;17.00;24.90
480;DHT22;226;48.606;9.096;2023-04-21T12:30:45;17.10;25.10
480;DHT22;226;48.606;9.096;2023-04-21T12:33:13;17.10;26.70
480;DHT22;226;48.606;9.096;2023-04-21T12:35:41;17.10;24.70
480;DHT22;226;48.606;9.096;2023-04-21T12:38:10;16.90;24.30
480;DHT22;226;48.606;9.096;2023-04-21T12:40:38;16.90;24.00
480;DHT22;226;48.606;9.096;2023-04-21T12:43:06;17.10;23.60
480;DHT22;226;48.606;9.096;2023-04-21T12:45:36;17.40;27.30
480;DHT22;226;48.606;9.096;2023-04-21T12:48:04;17.70;28.80
480;DHT22;226;48.606;9.096;2023-04-21T12:50:32;17.80;33.00
480;DHT22;226;48.606;9.096;2023-04-21T12:53:01;17.90;31.50
480;DHT22;226;48.606;9.096;2023-04-21T12:55:29;18.20;32.70
480;DHT22;226;48.606;9.096;2023-04-21T12:57:58;18.20;30.00
480;DHT22;226;48.606;9.096;2023-04-21T13:00:26;18.30;29.50
480;DHT22;226;48.606;9.096;2023-04-21T13:02:56;18.20;30.20
480;DHT22;226;48.606;9.096;2023-04-21T13:05:25;18.00;30.00
480;DHT22;226;48.606;9.096;2023-04-21T13:07:53;17.90;30.70
480;DHT22;226;48.606;9.096;2023-04-21T13:10:22;18.00;29.40
480;DHT22;226;48.606;9.096;2023-04-21T13:12:51;18.10;27.80
480;DHT22;226;48.606;9.096;2023-04-21T13:15:19;18.40;28.20
480;DHT22;226;48.606;9.096;2023-04-21T13:17:49;18.70;11.80
480;DHT22;226;48.606;9.096;2023-04-21T13:20:19;18.70;12.00
480;DHT22;226;48.606;9.096;2023-04-21T13:22:48;18.90;11.80
480;DHT22;226;48.606;9.096;2023-04-21T13:25:16;19.30;10.90
480;DHT22;226;48.606;9.096;2023-04-21T13:27:44;19.30;8.90
480;DHT22;226;48.606;9.096;2023-04-21T13:30:14;19.30;7.60
480;DHT22;226;48.606;9.096;2023-04-21T13:32:43;19.50;8.90
480;DHT22;226;48.606;9.096;2023-04-21T13:35:11;19.60;6.90
480;DHT22;226;48.606;9.096;2023-04-21T13:37:41;19.70;8.10
480;DHT22;226;48.606;9.096;2023-04-21T13:40:10;20.50;11.00
480;DHT22;226;48.606;9.096;2023-04-21T13:42:38;20.60;24.40
480;DHT22;226;48.606;9.096;2023-04-21T13:45:07;21.30;13.40
480;DHT22;226;48.606;9.096;2023-04-21T13:47:36;21.80;5.00
480;DHT22;226;48.606;9.096;2023-04-21T13:50:05;22.30;17.00
480;DHT22;226;48.606;9.096;2023-04-21T13:52:34;23.10;22.50
480;DHT22;226;48.606;9.096;2023-04-21T13:55:05;24.00;24.10
480;DHT22;226;48.606;9.096;2023-04-21T13:57:33;24.40;27.50
480;DHT22;226;48.606;9.096;2023-04-21T14:02:32;25.60;15.40
480;DHT22;226;48.606;9.096;2023-04-21T14:05:01;25.90;17.60
480;DHT22;226;48.606;9.096;2023-04-21T14:07:30;25.80;15.70
480;DHT22;226;48.606;9.096;2023-04-21T14:09:58;25.90;17.50
480;DHT22;226;48.606;9.096;2023-04-21T14:12:27;26.70;13.70
480;DHT22;226;48.606;9.096;2023-04-21T14:14:56;26.90;17.20
480;DHT22;226;48.606;9.096;2023-04-21T14:17:24;26.80;16.00
480;DHT22;226;48.606;9.096;2023-04-21T14:19:52;26.40;10.60
480;DHT22;226;48.606;9.096;2023-04-21T14:22:21;26.00;19.00
480;DHT22;226;48.606;9.096;2023-04-21T14:24:49;26.20;20.60
480;DHT22;226;48.606;9.096;2023-04-21T14:27:17;26.10;18.10
480;DHT22;226;48.606;9.096;2023-04-21T14:29:47;26.30;19.30
480;DHT22;226;48.606;9.096;2023-04-21T14:32:15;26.80;20.90
480;DHT22;226;48.606;9.096;2023-04-21T14:34:46;27.30;21.50
480;DHT22;226;48.606;9.096;2023-04-21T14:37:19;26.90;22.70
480;DHT22;226;48.606;9.096;2023-04-21T15:57:01;21.80;35.30
480;DHT22;226;48.606;9.096;2023-04-21T15:59:30;21.60;34.40
480;DHT22;226;48.606;9.096;2023-04-21T16:01:58;21.10;34.60
480;DHT22;226;48.606;9.096;2023-04-21T16:04:26;20.70;34.30
480;DHT22;226;48.606;9.096;2023-04-21T16:06:55;20.30;34.10
480;DHT22;226;48.606;9.096;2023-04-21T16:09:24;20.20;35.20
480;DHT22;226;48.606;9.096;2023-04-21T16:11:53;20.10;37.00
480;DHT22;226;48.606;9.096;2023-04-21T16:14:21;19.90;36.70
480;DHT22;226;48.606;9.096;2023-04-21T16:16:49;19.50;38.90
480;DHT22;226;48.606;9.096;2023-04-21T16:19:18;19.30;39.40
480;DHT22;226;48.606;9.096;2023-04-21T16:21:46;19.20;38.70
480;DHT22;226;48.606;9.096;2023-04-21T16:24:14;19.10;37.90
480;DHT22;226;48.606;9.096;2023-04-21T16:26:45;19.00;37.50
480;DHT22;226;48.606;9.096;2023-04-21T16:29:13;18.90;38.30
480;DHT22;226;48.606;9.096;2023-04-21T16:31:41;18.90;37.60
480;DHT22;226;48.606;9.096;2023-04-21T16:34:10;18.90;37.30
480;DHT22;226;48.606;9.096;2023-04-21T16:36:39;18.80;38.20
480;DHT22;226;48.606;9.096;2023-04-21T16:39:07;18.60;37.90
480;DHT22;226;48.606;9.096;2023-04-21T16:41:36;18.60;38.40
480;DHT22;226;48.606;9.096;2023-04-21T16:44:05;18.50;38.70
480;DHT22;226;48.606;9.096;2023-04-21T16:46:34;18.40;39.20
480;DHT22;226;48.606;9.096;2023-04-21T16:49:02;18.40;38.90
480;DHT22;226;48.606;9.096;2023-04-21T16:51:30;18.40;40.60
480;DHT22;226;48.606;9.096;2023-04-21T16:53:59;18.30;42.80
480;DHT22;226;48.606;9.096;2023-04-21T16:56:27;18.30;42.80
480;DHT22;226;48.606;9.096;2023-04-21T16:58:55;17.90;46.00
480;DHT22;226;48.606;9.096;2023-04-21T17:01:25;18.40;43.40
480;DHT22;226;48.606;9.096;2023-04-21T17:03:53;18.40;44.80
480;DHT22;226;48.606;9.096;2023-04-21T17:06:22;18.40;44.00
480;DHT22;226;48.606;9.096;2023-04-21T17:08:50;18.30;40.50
480;DHT22;226;48.606;9.096;2023-04-21T17:11:25;18.20;43.40
480;DHT22;226;48.606;9.096;2023-04-21T17:13:54;18.30;45.50
480;DHT22;226;48.606;9.096;2023-04-21T17:16:22;18.40;43.80
480;DHT22;226;48.606;9.096;2023-04-21T17:18:52;18.40;41.80
480;DHT22;226;48.606;9.096;2023-04-21T17:21:21;18.30;33.50
480;DHT22;226;48.606;9.096;2023-04-21T17:23:49;18.10;33.00
480;DHT22;226;48.606;9.096;2023-04-21T17:26:17;17.90;30.20
480;DHT22;226;48.606;9.096;2023-04-21T17:28:46;17.90;31.20
480;DHT22;226;48.606;9.096;2023-04-21T17:31:14;17.80;29.30
480;DHT22;226;48.606;9.096;2023-04-21T17:33:43;17.70;31.90
480;DHT22;226;48.606;9.096;2023-04-21T17:36:13;17.70;33.40
480;DHT22;226;48.606;9.096;2023-04-21T17:38:42;17.80;31.50
480;DHT22;226;48.606;9.096;2023-04-21T17:41:11;17.70;30.20
480;DHT22;226;48.606;9.096;2023-04-21T17:43:39;17.60;29.70
480;DHT22;226;48.606;9.096;2023-04-21T17:46:07;17.60;29.70
480;DHT22;226;48.606;9.096;2023-04-21T17:48:36;17.60;31.30
480;DHT22;226;48.606;9.096;2023-04-21T17:51:04;17.50;28.70
480;DHT22;226;48.606;9.096;2023-04-21T17:53:34;17.40;27.70
480;DHT22;226;48.606;9.096;2023-04-21T17:56:02;17.30;26.30
480;DHT22;226;48.606;9.096;2023-04-21T17:58:31;17.10;27.10
480;DHT22;226;48.606;9.096;2023-04-21T18:01:00;17.10;27.50
480;DHT22;226;48.606;9.096;2023-04-21T18:03:28;17.00;26.60
480;DHT22;226;48.606;9.096;2023-04-21T18:05:58;16.90;27.70
480;DHT22;226;48.606;9.096;2023-04-21T18:08:27;16.80;28.20
480;DHT22;226;48.606;9.096;2023-04-21T18:10:57;16.70;28.90
480;DHT22;226;48.606;9.096;2023-04-21T18:13:25;16.60;27.80
480;DHT22;226;48.606;9.096;2023-04-21T18:15:53;16.60;28.90